createdAt,value
2019-04-16T00:01:04.925Z,4.58
2019-04-16T00:03:32.149Z,4.58
2019-04-16T00:06:05.790Z,4.57
2019-04-16T00:08:54.123Z,4.52
2019-04-16T00:11:26.062Z,4.48
2019-04-16T00:13:57.949Z,4.45
2019-04-16T00:16:24.647Z,4.41
2019-04-16T00:18:57.992Z,4.37
2019-04-16T00:21:48.957Z,4.34
2019-04-16T00:24:35.163Z,4.32
2019-04-16T00:27:01.786Z,4.32
2019-04-16T00:29:32.557Z,4.28
2019-04-16T00:32:09.775Z,4.24
2019-04-16T00:34:36.474Z,4.18
2019-04-16T00:37:03.258Z,4.13
2019-04-16T00:39:29.936Z,4.09
2019-04-16T00:41:56.766Z,4.05
2019-04-16T00:44:23.384Z,4.00
2019-04-16T00:46:50.034Z,3.95
2019-04-16T00:49:16.627Z,3.89
2019-04-16T00:51:43.239Z,3.83
2019-04-16T00:54:11.245Z,3.81
2019-04-16T00:56:38.114Z,3.79
2019-04-16T00:59:04.738Z,3.78
2019-04-16T01:01:31.348Z,3.74
2019-04-16T01:03:57.962Z,3.66
2019-04-16T01:06:24.576Z,3.64
2019-04-16T01:08:54.917Z,3.59
2019-04-16T01:11:19.700Z,3.52
2019-04-16T01:13:46.344Z,3.45
2019-04-16T01:16:13.089Z,3.44
2019-04-16T01:18:39.700Z,3.47
2019-04-16T01:21:06.542Z,3.52
2019-04-16T01:23:33.262Z,3.54
2019-04-16T01:25:59.882Z,3.54
2019-04-16T01:28:29.350Z,3.50
2019-04-16T01:31:19.395Z,3.43
2019-04-16T01:34:08.280Z,3.41
2019-04-16T01:36:54.994Z,3.39
2019-04-16T01:39:24.167Z,3.40
2019-04-16T01:41:53.279Z,3.36
2019-04-16T01:44:19.333Z,3.30
2019-04-16T01:46:45.969Z,3.25
2019-04-16T01:49:12.665Z,3.22
2019-04-16T01:51:39.307Z,3.18
2019-04-16T01:54:05.903Z,3.13
2019-04-16T01:56:32.545Z,3.09
2019-04-16T01:58:59.141Z,3.05
2019-04-16T02:01:25.755Z,3.04
2019-04-16T02:03:52.410Z,3.02
2019-04-16T02:06:19.015Z,2.98
2019-04-16T02:08:45.637Z,2.87
2019-04-16T02:11:12.241Z,2.78
2019-04-16T02:13:38.871Z,2.77
2019-04-16T02:16:05.477Z,2.78
2019-04-16T02:18:32.099Z,2.81
2019-04-16T02:20:58.702Z,2.78
2019-04-16T02:23:25.349Z,2.71
2019-04-16T02:25:52.052Z,2.69
2019-04-16T02:28:21.466Z,2.67
2019-04-16T02:30:47.185Z,2.65
2019-04-16T02:33:13.779Z,2.63
2019-04-16T02:35:40.410Z,2.59
2019-04-16T02:38:10.499Z,2.57
2019-04-16T02:40:35.568Z,2.53
2019-04-16T02:43:06.607Z,2.52
2019-04-16T02:45:30.829Z,2.51
2019-04-16T02:47:57.440Z,2.50
2019-04-16T02:50:36.180Z,2.48
2019-04-16T02:53:31.427Z,2.47
2019-04-16T02:56:22.772Z,2.45
2019-04-16T02:59:12.440Z,2.43
2019-04-16T03:02:15.176Z,2.36
2019-04-16T03:07:23.893Z,2.31
2019-04-16T03:10:00.699Z,2.29
2019-04-16T03:12:28.784Z,2.25
2019-04-16T03:14:55.439Z,2.19
2019-04-16T03:17:42.886Z,2.13
2019-04-16T03:20:17.062Z,2.12
2019-04-16T03:22:43.799Z,2.14
2019-04-16T03:28:11.580Z,2.12
2019-04-16T03:30:42.129Z,2.09
2019-04-16T03:33:16.617Z,2.14
2019-04-16T03:35:51.562Z,2.16
2019-04-16T03:38:18.280Z,2.16
2019-04-16T03:40:44.974Z,2.16
2019-04-16T03:43:11.593Z,2.13
2019-04-16T03:45:40.491Z,2.09
2019-04-16T03:48:07.056Z,2.04
2019-04-16T03:50:33.756Z,2.00
2019-04-16T03:53:00.380Z,1.96
2019-04-16T03:55:26.979Z,1.92
2019-04-16T03:57:54.002Z,1.92
2019-04-16T04:00:23.493Z,1.92
2019-04-16T04:02:54.149Z,1.90
2019-04-16T04:05:18.643Z,1.89
2019-04-16T04:07:45.279Z,1.88
2019-04-16T04:10:30.014Z,1.90
2019-04-16T04:12:46.600Z,1.92
2019-04-16T04:15:13.300Z,1.92
2019-04-16T04:17:39.918Z,1.90
2019-04-16T04:20:06.527Z,1.89
2019-04-16T04:22:33.275Z,1.82
2019-04-16T04:25:00.514Z,1.81
2019-04-16T04:27:28.397Z,1.78
2019-04-16T04:29:56.624Z,1.76
2019-04-16T04:32:32.427Z,1.76
2019-04-16T04:35:05.180Z,1.78
2019-04-16T04:37:32.067Z,1.79
2019-04-16T04:39:58.806Z,1.79
2019-04-16T04:42:28.118Z,1.80
2019-04-16T04:44:53.989Z,1.79
2019-04-16T04:47:20.733Z,1.79
2019-04-16T04:49:47.347Z,1.80
2019-04-16T04:52:15.145Z,1.85
2019-04-16T04:54:41.882Z,1.87
2019-04-16T04:57:08.644Z,1.90
2019-04-16T04:59:36.720Z,1.97
2019-04-16T05:02:03.830Z,2.04
2019-04-16T05:04:53.301Z,2.13
2019-04-16T05:07:19.985Z,2.23
2019-04-16T05:09:46.569Z,2.34
2019-04-16T05:12:13.361Z,2.41
2019-04-16T05:14:50.719Z,2.50
2019-04-16T05:17:17.448Z,3.12
2019-04-16T05:19:44.557Z,4.28
2019-04-16T05:22:11.236Z,5.06
2019-04-16T05:24:37.883Z,5.71
2019-04-16T05:27:05.453Z,6.07
2019-04-16T05:29:39.199Z,6.36
2019-04-16T05:32:05.946Z,6.12
2019-04-16T05:34:34.674Z,5.84
2019-04-16T05:37:07.190Z,5.65
2019-04-16T05:39:33.823Z,5.54
2019-04-16T05:42:00.468Z,5.67
2019-04-16T05:44:27.200Z,6.00
2019-04-16T05:46:53.851Z,6.46
2019-04-16T05:49:24.628Z,6.62
2019-04-16T05:51:55.349Z,6.66
2019-04-16T05:54:44.387Z,6.78
2019-04-16T06:00:02.802Z,6.80
2019-04-16T06:02:54.233Z,6.85
2019-04-16T06:05:20.951Z,7.20
2019-04-16T06:07:47.578Z,7.54
2019-04-16T06:10:19.203Z,7.84
2019-04-16T06:12:57.663Z,8.15
2019-04-16T06:15:35.733Z,8.56
2019-04-16T06:18:20.790Z,8.89
2019-04-16T06:21:07.084Z,9.16
2019-04-16T06:23:53.188Z,8.96
2019-04-16T06:26:39.306Z,8.58
2019-04-16T06:29:14.597Z,8.17
2019-04-16T06:32:00.802Z,7.83
2019-04-16T06:34:47.038Z,7.61
2019-04-16T06:37:33.229Z,7.43
2019-04-16T06:40:19.498Z,7.32
2019-04-16T06:42:53.937Z,7.22
2019-04-16T06:48:20.315Z,7.12
2019-04-16T06:51:06.501Z,7.12
2019-04-16T06:53:54.012Z,7.15
2019-04-16T06:56:50.547Z,7.23
2019-04-16T06:59:37.368Z,7.41
2019-04-16T07:02:24.670Z,7.58
2019-04-16T07:05:18.039Z,7.76
2019-04-16T07:08:04.235Z,7.85
2019-04-16T07:10:44.347Z,7.96
2019-04-16T07:13:11.188Z,8.05
2019-04-16T07:15:48.575Z,8.17
2019-04-16T07:18:15.199Z,8.30
2019-04-16T07:20:42.297Z,8.40
2019-04-16T07:23:10.339Z,8.49
2019-04-16T07:25:41.726Z,8.64
2019-04-16T07:28:31.385Z,8.77
2019-04-16T07:31:32.686Z,8.88
2019-04-16T07:33:58.854Z,8.99
2019-04-16T07:36:44.944Z,9.10
2019-04-16T07:39:31.017Z,9.18
2019-04-16T07:42:21.379Z,9.25
2019-04-16T07:45:13.025Z,9.35
2019-04-16T07:48:06.920Z,9.44
2019-04-16T07:50:53.247Z,9.47
2019-04-16T07:53:39.421Z,9.55
2019-04-16T07:56:11.529Z,9.60
2019-04-16T07:58:38.139Z,9.65
2019-04-16T08:01:04.874Z,9.72
2019-04-16T08:03:31.523Z,9.83
2019-04-16T08:05:58.245Z,9.95
2019-04-16T08:08:25.487Z,10.03
2019-04-16T08:10:59.628Z,10.12
2019-04-16T08:16:04.820Z,10.24
2019-04-16T08:18:31.467Z,10.33
2019-04-16T08:21:02.144Z,10.42
2019-04-16T08:23:55.868Z,10.50
2019-04-16T08:26:22.590Z,10.57
2019-04-16T08:28:49.228Z,10.64
2019-04-16T08:31:22.216Z,10.74
2019-04-16T08:33:48.848Z,10.86
2019-04-16T08:36:15.490Z,10.96
2019-04-16T08:38:42.228Z,11.08
2019-04-16T08:41:08.858Z,11.20
2019-04-16T08:43:35.528Z,11.28
2019-04-16T08:46:02.131Z,11.36
2019-04-16T08:48:28.745Z,11.44
2019-04-16T08:50:57.880Z,11.56
2019-04-16T08:53:23.891Z,11.64
2019-04-16T08:55:50.568Z,11.72
2019-04-16T08:58:17.273Z,11.79
2019-04-16T09:00:46.413Z,11.89
2019-04-16T09:03:15.475Z,11.94
2019-04-16T09:05:42.291Z,12.01
2019-04-16T09:08:24.248Z,12.16
2019-04-16T09:10:50.885Z,12.28
2019-04-16T09:15:58.632Z,12.65
2019-04-16T09:18:44.757Z,13.00
2019-04-16T09:21:11.689Z,13.39
2019-04-16T09:24:09.129Z,13.70
2019-04-16T09:29:59.287Z,13.86
2019-04-16T09:32:45.510Z,13.96
2019-04-16T09:35:31.597Z,14.16
2019-04-16T09:38:17.805Z,14.30
2019-04-16T09:41:03.991Z,14.56
2019-04-16T09:46:11.144Z,14.76
2019-04-16T09:48:44.577Z,14.88
2019-04-16T09:51:11.208Z,15.03
2019-04-16T09:53:40.407Z,15.10
2019-04-16T09:56:32.205Z,15.20
2019-04-16T10:04:44.137Z,15.66
2019-04-16T10:07:10.759Z,15.86
2019-04-16T10:09:37.481Z,16.17
2019-04-16T10:12:04.927Z,16.60
2019-04-16T10:14:39.223Z,16.93
2019-04-16T10:19:44.708Z,17.49
2019-04-16T10:22:11.356Z,17.73
2019-04-16T10:24:57.438Z,18.03
2019-04-16T10:27:43.676Z,18.37
2019-04-16T10:33:04.376Z,18.72
2019-04-16T10:35:31.109Z,18.99
2019-04-16T10:40:58.246Z,19.00
2019-04-16T10:43:51.169Z,19.28
2019-04-16T10:46:37.419Z,19.37
2019-04-16T10:49:18.258Z,19.70
2019-04-16T10:52:04.455Z,19.86
2019-04-16T10:54:50.699Z,19.78
2019-04-16T10:57:38.512Z,19.92
2019-04-16T11:03:35.929Z,20.98
2019-04-16T11:06:22.114Z,21.22
2019-04-16T11:08:48.780Z,21.03
2019-04-16T11:11:15.558Z,20.87
2019-04-16T11:13:58.382Z,20.50
2019-04-16T11:16:19.703Z,20.24
2019-04-16T11:18:46.333Z,20.53
2019-04-16T11:21:13.193Z,21.02
2019-04-16T11:23:39.915Z,21.28
2019-04-16T11:26:06.778Z,21.29
2019-04-16T11:28:44.997Z,21.33
2019-04-16T11:36:46.279Z,22.18
2019-04-16T11:39:12.931Z,21.97
2019-04-16T11:41:39.591Z,22.33
2019-04-16T11:44:15.160Z,22.81
2019-04-16T11:46:34.914Z,22.95
2019-04-16T11:49:01.681Z,23.08
2019-04-16T11:51:28.375Z,23.46
2019-04-16T11:53:55.034Z,23.41
2019-04-16T11:56:22.631Z,23.33
2019-04-16T11:59:00.757Z,23.42
2019-04-16T12:04:59.118Z,23.65
2019-04-16T12:07:50.365Z,23.82
2019-04-16T12:10:35.699Z,23.56
2019-04-16T12:13:21.790Z,23.57
2019-04-16T12:16:07.973Z,23.58
2019-04-16T12:18:54.258Z,23.16
2019-04-16T12:21:40.422Z,23.29
2019-04-16T12:24:26.552Z,23.45
2019-04-16T12:27:12.749Z,23.59
2019-04-16T12:29:58.969Z,23.17
2019-04-16T12:32:45.151Z,22.99
2019-04-16T12:35:34.769Z,22.98
2019-04-16T12:38:12.721Z,23.40
2019-04-16T12:41:00.006Z,23.92
2019-04-16T12:43:50.824Z,24.38
2019-04-16T12:46:40.328Z,24.78
2019-04-16T12:49:26.512Z,25.40
2019-04-16T12:52:06.377Z,25.77
2019-04-16T12:54:58.331Z,25.59
2019-04-16T12:57:47.176Z,25.76
2019-04-16T13:00:40.926Z,26.11
2019-04-16T13:03:27.139Z,26.39
2019-04-16T13:06:13.385Z,26.38
2019-04-16T13:08:59.547Z,26.25
2019-04-16T13:11:34.989Z,25.87
2019-04-16T13:14:29.963Z,25.18
2019-04-16T13:17:18.777Z,25.03
2019-04-16T13:20:10.779Z,24.89
2019-04-16T13:22:57.002Z,25.09
2019-04-16T13:25:43.185Z,25.21
2019-04-16T13:28:09.952Z,25.30
2019-04-16T13:30:36.669Z,25.05
2019-04-16T13:33:03.333Z,25.01
2019-04-16T13:35:30.059Z,25.37
2019-04-16T13:37:56.736Z,25.88
2019-04-16T13:40:23.415Z,26.06
2019-04-16T13:42:50.113Z,26.19
2019-04-16T13:45:36.414Z,25.91
2019-04-16T13:48:15.426Z,25.60
2019-04-16T13:51:05.274Z,26.03
2019-04-16T13:53:49.646Z,26.42
2019-04-16T13:56:50.365Z,26.86
2019-04-16T13:59:17.518Z,27.16
2019-04-16T14:01:59.130Z,26.95
2019-04-16T14:04:30.445Z,26.64
2019-04-16T14:06:54.560Z,26.25
2019-04-16T14:09:21.200Z,25.88
2019-04-16T14:11:51.049Z,25.59
2019-04-16T14:14:18.190Z,25.59
2019-04-16T14:16:45.689Z,25.24
2019-04-16T14:19:12.336Z,25.54
2019-04-16T14:21:38.943Z,25.95
2019-04-16T14:24:05.577Z,26.21
2019-04-16T14:26:32.181Z,26.55
2019-04-16T14:28:58.945Z,26.90
2019-04-16T14:31:26.347Z,27.41
2019-04-16T14:34:21.373Z,27.38
2019-04-16T14:36:48.099Z,27.55
2019-04-16T14:39:25.981Z,27.74
2019-04-16T14:41:52.595Z,28.16
2019-04-16T14:44:19.513Z,28.47
2019-04-16T14:46:46.134Z,28.36
2019-04-16T14:49:15.273Z,28.01
2019-04-16T14:51:41.273Z,27.46
2019-04-16T14:54:21.506Z,26.99
2019-04-16T14:56:51.245Z,26.78
2019-04-16T14:59:33.548Z,26.58
2019-04-16T15:02:29.326Z,26.61
2019-04-16T15:05:21.368Z,26.45
2019-04-16T15:08:01.889Z,26.44
2019-04-16T15:10:46.434Z,26.30
2019-04-16T15:13:35.417Z,26.30
2019-04-16T15:16:22.191Z,26.10
2019-04-16T15:19:20.369Z,26.55
2019-04-16T15:22:15.497Z,26.75
2019-04-16T15:24:45.955Z,27.12
2019-04-16T15:27:28.151Z,26.79
2019-04-16T15:30:15.594Z,26.85
2019-04-16T15:33:05.271Z,26.76
2019-04-16T15:35:31.884Z,26.36
2019-04-16T15:38:07.024Z,26.14
2019-04-16T15:40:39.157Z,26.13
2019-04-16T15:43:23.566Z,26.20
2019-04-16T15:46:26.760Z,26.13
2019-04-16T15:49:06.509Z,26.17
2019-04-16T15:51:52.652Z,26.47
2019-04-16T15:54:38.792Z,26.39
2019-04-16T15:57:31.398Z,26.61
2019-04-16T16:00:26.932Z,26.12
2019-04-16T16:03:25.202Z,26.16
2019-04-16T16:05:56.519Z,26.32
2019-04-16T16:08:35.442Z,25.90
2019-04-16T16:11:01.712Z,25.85
2019-04-16T16:13:28.369Z,25.80
2019-04-16T16:15:55.034Z,25.67
2019-04-16T16:18:21.783Z,25.54
2019-04-16T16:20:48.490Z,25.48
2019-04-16T16:23:15.123Z,25.42
2019-04-16T16:25:42.133Z,25.24
2019-04-16T16:28:08.867Z,25.19
2019-04-16T16:30:35.602Z,25.31
2019-04-16T16:33:02.254Z,25.45
2019-04-16T16:35:28.903Z,25.44
2019-04-16T16:37:55.557Z,25.37
2019-04-16T16:40:22.246Z,25.20
2019-04-16T16:42:48.928Z,24.90
2019-04-16T16:45:15.655Z,24.81
2019-04-16T16:47:42.380Z,24.78
2019-04-16T16:50:11.541Z,24.58
2019-04-16T16:52:58.275Z,24.26
2019-04-16T16:55:46.242Z,23.80
2019-04-16T16:58:41.618Z,23.36
2019-04-16T17:01:22.937Z,22.93
2019-04-16T17:03:56.057Z,22.76
2019-04-16T17:06:22.803Z,22.48
2019-04-16T17:08:49.421Z,22.23
2019-04-16T17:11:17.102Z,21.98
2019-04-16T17:13:43.880Z,21.47
2019-04-16T17:16:13.530Z,21.14
2019-04-16T17:18:39.077Z,20.81
2019-04-16T17:21:05.705Z,20.35
2019-04-16T17:23:32.424Z,19.99
2019-04-16T17:25:59.069Z,19.64
2019-04-16T17:28:25.772Z,19.33
2019-04-16T17:30:52.417Z,19.02
2019-04-16T17:33:19.139Z,18.75
2019-04-16T17:35:46.569Z,18.50
2019-04-16T17:38:13.799Z,18.30
2019-04-16T17:41:00.365Z,18.11
2019-04-16T17:43:38.127Z,17.99
2019-04-16T17:46:24.689Z,17.88
2019-04-16T17:49:12.813Z,17.73
2019-04-16T17:51:52.748Z,17.47
2019-04-16T17:54:39.159Z,17.22
2019-04-16T17:57:23.336Z,16.95
2019-04-16T18:00:04.746Z,16.71
2019-04-16T18:02:50.766Z,16.55
2019-04-16T18:05:46.248Z,16.40
2019-04-16T18:08:24.445Z,16.23
2019-04-16T18:10:55.513Z,16.07
2019-04-16T18:13:31.904Z,15.92
2019-04-16T18:16:26.209Z,15.80
2019-04-16T18:19:01.205Z,15.67
2019-04-16T18:21:43.185Z,15.50
2019-04-16T18:24:32.127Z,15.37
2019-04-16T18:27:36.509Z,15.28
2019-04-16T18:30:28.710Z,15.16
2019-04-16T18:33:23.718Z,15.04
2019-04-16T18:36:17.043Z,14.89
2019-04-16T18:39:05.129Z,14.76
2019-04-16T18:41:40.472Z,14.63
2019-04-16T18:44:29.235Z,14.50
2019-04-16T18:47:10.817Z,14.39
2019-04-16T18:49:37.509Z,14.24
2019-04-16T18:52:05.360Z,14.09
2019-04-16T18:54:32.789Z,13.92
2019-04-16T18:56:59.520Z,13.75
2019-04-16T18:59:26.164Z,13.55
2019-04-16T19:01:58.094Z,13.37
2019-04-16T19:04:24.709Z,13.18
2019-04-16T19:06:51.342Z,13.02
2019-04-16T19:09:20.849Z,12.83
2019-04-16T19:11:46.510Z,12.66
2019-04-16T19:14:13.990Z,12.51
2019-04-16T19:16:40.811Z,12.40
2019-04-16T19:19:07.471Z,12.29
2019-04-16T19:21:34.109Z,12.21
2019-04-16T19:24:00.845Z,12.14
2019-04-16T19:26:30.181Z,12.05
2019-04-16T19:28:56.006Z,12.00
2019-04-16T19:31:23.812Z,11.93
2019-04-16T19:33:50.692Z,11.85
2019-04-16T19:36:19.707Z,11.76
2019-04-16T19:38:45.910Z,11.66
2019-04-16T19:41:12.619Z,11.58
2019-04-16T19:43:39.304Z,11.50
2019-04-16T19:46:06.531Z,11.44
2019-04-16T19:48:36.517Z,11.36
2019-04-16T19:51:03.248Z,11.23
2019-04-16T19:53:30.012Z,11.12
2019-04-16T19:55:56.757Z,10.98
2019-04-16T19:58:23.379Z,10.89
2019-04-16T20:00:50.030Z,10.83
2019-04-16T20:03:16.715Z,10.79
2019-04-16T20:05:43.435Z,10.74
2019-04-16T20:08:10.064Z,10.70
2019-04-16T20:10:36.812Z,10.66
2019-04-16T20:13:03.538Z,10.62
2019-04-16T20:15:30.191Z,10.54
2019-04-16T20:17:57.118Z,10.49
2019-04-16T20:20:23.780Z,10.42
2019-04-16T20:22:50.422Z,10.34
2019-04-16T20:25:36.514Z,10.22
2019-04-16T20:28:03.355Z,10.14
2019-04-16T20:30:30.081Z,10.03
2019-04-16T20:32:56.868Z,9.98
2019-04-16T20:35:23.592Z,9.91
2019-04-16T20:37:53.098Z,9.82
2019-04-16T20:40:25.062Z,9.75
2019-04-16T20:42:51.714Z,9.69
2019-04-16T20:45:18.567Z,9.65
2019-04-16T20:47:45.291Z,9.60
2019-04-16T20:50:11.937Z,9.55
2019-04-16T20:52:38.549Z,9.50
2019-04-16T20:55:06.089Z,9.44
2019-04-16T20:57:32.799Z,9.41
2019-04-16T20:59:59.421Z,9.36
2019-04-16T21:02:27.948Z,9.32
2019-04-16T21:04:58.160Z,9.24
2019-04-16T21:07:23.192Z,9.18
2019-04-16T21:09:49.931Z,9.12
2019-04-16T21:12:16.566Z,9.03
2019-04-16T21:14:43.203Z,8.98
2019-04-16T21:17:09.865Z,8.94
2019-04-16T21:19:46.656Z,8.90
2019-04-16T21:22:13.246Z,8.87
2019-04-16T21:24:40.051Z,8.82
2019-04-16T21:27:14.445Z,8.77
2019-04-16T21:29:41.055Z,8.76
2019-04-16T21:34:59.908Z,8.66
2019-04-16T21:37:35.919Z,8.62
2019-04-16T21:40:03.844Z,8.67
2019-04-16T21:42:34.435Z,8.74
2019-04-16T21:44:58.999Z,8.78
2019-04-16T21:47:25.645Z,8.82
2019-04-16T21:49:52.486Z,8.76
2019-04-16T21:52:19.112Z,8.74
2019-04-16T21:54:45.750Z,8.71
2019-04-16T21:57:13.477Z,8.68
2019-04-16T21:59:40.928Z,8.67
2019-04-16T22:02:20.712Z,8.70
2019-04-16T22:04:47.516Z,8.79
2019-04-16T22:07:14.144Z,8.89
2019-04-16T22:09:40.771Z,9.00
2019-04-16T22:12:07.504Z,9.10
2019-04-16T22:14:34.218Z,9.19
2019-04-16T22:17:04.149Z,9.24
2019-04-16T22:19:29.348Z,9.34
2019-04-16T22:21:55.978Z,9.40
2019-04-16T22:24:23.770Z,9.45
2019-04-16T22:26:50.652Z,9.49
2019-04-16T22:29:17.400Z,9.53
2019-04-16T22:31:44.034Z,9.54
2019-04-16T22:34:10.756Z,9.56
2019-04-16T22:36:37.394Z,9.58
2019-04-16T22:39:13.146Z,9.60
2019-04-16T22:41:49.445Z,9.60
2019-04-16T22:44:50.219Z,9.60
2019-04-16T22:47:20.236Z,9.57
2019-04-16T22:49:46.848Z,9.56
2019-04-16T22:52:13.489Z,9.55
2019-04-16T22:54:40.089Z,9.51
2019-04-16T22:57:11.904Z,9.48
2019-04-16T22:59:39.407Z,9.43
2019-04-16T23:02:27.124Z,9.40
2019-04-16T23:04:54.846Z,9.39
2019-04-16T23:07:22.297Z,9.38
2019-04-16T23:09:49.842Z,9.40
2019-04-16T23:12:16.485Z,9.37
2019-04-16T23:14:43.166Z,9.34
2019-04-16T23:17:13.138Z,9.27
2019-04-16T23:19:38.453Z,9.14
2019-04-16T23:22:05.163Z,9.00
2019-04-16T23:24:31.811Z,8.91
2019-04-16T23:26:58.463Z,8.82
2019-04-16T23:29:25.159Z,8.70
2019-04-16T23:31:55.059Z,8.62
2019-04-16T23:34:20.589Z,8.54
2019-04-16T23:36:48.514Z,8.45
2019-04-16T23:39:15.755Z,8.38
2019-04-16T23:41:42.395Z,8.30
2019-04-16T23:44:34.207Z,8.22
2019-04-16T23:47:22.297Z,8.11
2019-04-16T23:50:04.531Z,8.04
2019-04-16T23:52:36.411Z,7.98
2019-04-16T23:55:24.511Z,7.91
2019-04-16T23:58:01.916Z,7.87
